Latest Weather Observations for Wagga Wagga

IDN60801

Issued at 12:43 am EDT Monday 26 October 2020 (issued every 10 minutes, with the page automatically refreshed every 10 minutes)

About weather observations | Map of weather stations | Latest weather observations for NSW | Other Formats
Station Details ID: 072150 Name: WAGGA WAGGA AMO Lat: -35.16 Lon: 147.46 Height: 212.0 m
Data from the previous 72 hours. | See also: Recent months at Wagga Wagga
Date/Time
EDT
Temp
°C
App
Temp
°C
Dew
Point
°C
Rel
Hum
%
Delta-T
°C
Wind Press
QNH
hPa
Press
MSL
hPa
Rain since
9am
mm
Dir  Spd
km/h
Gust
km/h
Spd
kts
Gust
kts
26/12:30am 11.5 10.2 11.3 99 0.1 SE 9 11 5 6 1016.9 1016.7 6.0
26/12:00am 11.1 10.3 10.9 99 0.1 SSE 6 11 3 6 1016.8 1016.6 6.0
 
Date/Time
EDT
Temp
°C
App
Temp
°C
Dew
Point
°C
Rel
Hum
%
Delta-T
°C
Wind Press
QNH
hPa
Press
MSL
hPa
Rain since
9am
mm
Dir  Spd
km/h
Gust
km/h
Spd
kts
Gust
kts
25/11:30pm 11.2 9.4 10.9 98 0.2 SE 11 13 6 7 1016.8 1016.6 6.0
25/11:00pm 11.9 10.0 10.6 92 0.7 ESE 11 11 6 6 1016.8 1016.6 6.0
25/10:30pm 12.5 10.0 11.1 91 0.7 SE 15 15 8 8 1016.9 1016.7 6.0
25/10:00pm 12.6 10.0 10.8 89 0.9 SE 15 17 8 9 1016.9 1016.7 6.0
25/09:30pm 12.5 10.4 11.2 92 0.7 SE 13 13 7 7 1016.8 1016.6 6.0
25/09:00pm 12.3 10.7 11.5 95 0.4 SE 11 15 6 8 1016.6 1016.4 6.0
25/08:30pm 12.6 11.3 12.4 99 0.1 SE 11 15 6 8 1016.4 1016.2 6.0
25/08:00pm 13.1 12.3 12.9 99 0.1 SSE 9 13 5 7 1016.2 1016.0 6.0
25/07:40pm 13.2 12.0 12.9 98 0.2 SE 11 15 6 8 1016.0 1015.8 6.0
25/07:30pm 13.2 10.9 13.0 99 0.1 SE 17 22 9 12 1015.8 1015.6 6.0
25/07:15pm 14.5 13.8 14.3 99 0.1 ENE 11 20 6 11 1015.5 1015.3 2.4
25/07:00pm 15.0 15.2 14.2 95 0.5 SSE 6 11 3 6 1015.1 1014.8 0.6
25/06:30pm 15.7 14.9 12.8 83 1.6 ENE 9 13 5 7 1014.5 1014.2 0.4
25/06:00pm 16.6 16.0 12.4 76 2.3 NNE 7 11 4 6 1014.2 1013.9 0.4
25/05:30pm 16.5 16.4 12.1 75 2.4 NNE 4 11 2 6 1013.8 1013.6 0.4
25/05:00pm 16.8 16.3 12.5 76 2.4 NE 7 11 4 6 1013.5 1013.3 0.4
25/04:30pm 16.5 15.6 12.5 77 2.2 ENE 9 13 5 7 1013.3 1013.1 0.4
25/04:00pm 16.6 15.5 12.0 74 2.5 NE 9 13 5 7 1013.1 1012.9 0.4
25/03:30pm 16.6 16.1 12.6 77 2.2 ENE 7 11 4 6 1013.0 1012.8 0.4
25/03:00pm 16.2 16.3 12.7 80 2.0 W 4 9 2 5 1013.2 1013.0 0.4
25/02:30pm 15.1 15.4 13.3 89 1.0 ESE 4 11 2 6 1013.7 1013.5 0.4
25/02:00pm 13.6 11.4 13.4 99 0.1 SSE 17 19 9 10 1013.9 1013.7 0.4
25/01:58pm 13.6 11.4 13.4 99 0.1 SSE 17 20 9 11 1013.9 1013.7 0.4
25/01:37pm 13.2 11.0 13.2 100 0.0 SSE 17 22 9 12 1013.9 1013.7 0.4
25/01:30pm 13.2 10.9 13.0 99 0.1 SSE 17 22 9 12 1013.9 1013.7 0.4
25/01:00pm 13.6 11.9 13.6 100 0.0 SE 15 19 8 10 1013.9 1013.7 0.4
25/12:30pm 13.0 10.7 13.0 100 0.0 SSE 17 22 9 12 1013.9 1013.7 0.4
25/12:25pm 13.2 11.0 13.2 100 0.0 S 17 22 9 12 1013.9 1013.7 0.4
25/12:00pm 12.6 10.2 12.6 100 0.0 SSE 17 20 9 11 1013.9 1013.7 0.4
25/11:33am 12.3 10.2 12.3 100 0.0 SSE 15 17 8 9 1014.0 1013.8 0.2
25/11:30am 11.9 9.6 11.9 100 0.0 SSE 15 17 8 9 1014.0 1013.8 0.2
25/11:26am 12.2 10.4 12.2 100 0.0 SSE 13 17 7 9 1014.0 1013.8 0.2
25/11:00am 11.3 8.5 11.3 100 0.0 SSE 17 19 9 10 1013.9 1013.7 0.2
25/10:30am 11.1 8.2 11.1 100 0.0 SSE 17 20 9 11 1013.7 1013.5 0.2
25/10:00am 10.6 8.0 10.6 100 0.0 SSE 15 19 8 10 1013.6 1013.4 0.0
25/09:30am 10.6 7.9 10.4 99 0.1 SSE 15 19 8 10 1013.2 1013.0 0.0
25/09:01am 10.8 9.9 10.5 98 0.2 ENE 6 9 3 5 1012.9 1012.7 0.0
25/09:00am 10.7 9.6 10.1 96 0.3 NE 6 9 3 5 1012.9 1012.7 4.4
25/08:30am 9.9 9.7 9.0 94 0.4 CALM 0 0 0 0 1012.3 1012.1 4.4
25/08:00am 9.3 7.8 9.0 98 0.1 WNW 7 9 4 5 1011.8 1011.6 4.4
25/07:30am 8.9 7.9 8.8 99 0.0 NW 4 7 2 4 1011.5 1011.3 4.4
25/07:00am 8.2 7.8 8.1 99 0.0 CALM 0 0 0 0 1010.9 1010.6 4.4
25/06:30am 7.3 4.9 7.2 99 0.0 W 9 11 5 6 1010.7 1010.4 4.4
25/06:00am 7.2 5.2 7.1 99 0.0 WNW 7 7 4 4 1010.0 1009.7 4.4
25/05:30am 7.5 5.2 7.4 99 0.0 WSW 9 9 5 5 1009.5 1009.2 4.4
25/05:00am 8.0 4.7 7.9 99 0.0 WSW 15 17 8 9 1009.1 1008.9 4.4
25/04:30am 9.2 7.2 8.7 97 0.2 W 9 13 5 7 1008.8 1008.6 4.4
25/04:00am 9.7 7.4 8.9 95 0.4 WNW 11 13 6 7 1008.6 1008.4 4.4
25/03:30am 10.0 7.8 9.4 96 0.3 W 11 13 6 7 1008.4 1008.2 4.4
25/03:00am 10.4 7.4 9.3 93 0.6 WSW 15 17 8 9 1008.3 1008.1 4.4
25/02:30am 10.7 7.7 9.1 90 0.8 WSW 15 20 8 11 1008.0 1007.8 4.4
25/02:00am 11.2 7.3 9.3 88 1.0 WSW 20 26 11 14 1007.8 1007.6 4.4
25/01:30am 11.8 8.7 9.0 83 1.4 SW 15 20 8 11 1007.7 1007.5 4.4
25/01:00am 12.1 8.3 9.7 85 1.2 SW 20 28 11 15 1007.8 1007.6 4.4
25/12:30am 12.2 9.8 9.9 86 1.2 SW 13 17 7 9 1007.8 1007.6 4.4
25/12:00am 12.3 9.9 9.9 85 1.2 SW 13 17 7 9 1007.6 1007.4 4.4
 
Date/Time
EDT
Temp
°C
App
Temp
°C
Dew
Point
°C
Rel
Hum
%
Delta-T
°C
Wind Press
QNH
hPa
Press
MSL
hPa
Rain since
9am
mm
Dir  Spd
km/h
Gust
km/h
Spd
kts
Gust
kts
24/11:30pm 12.5 8.9 9.7 83 1.4 WSW 19 26 10 14 1007.4 1007.2 4.4
24/11:00pm 12.7 8.9 9.7 82 1.6 WSW 20 26 11 14 1007.1 1006.8 4.4
24/10:30pm 12.9 10.4 9.7 81 1.7 SW 13 19 7 10 1007.1 1006.8 4.4
24/10:00pm 13.3 8.6 9.4 77 2.0 WSW 24 33 13 18 1006.8 1006.5 4.4
24/09:30pm 13.8 10.7 10.4 80 1.8 SW 17 26 9 14 1006.7 1006.4 4.4
24/09:00pm 14.2 8.9 11.4 83 1.5 WSW 30 37 16 20 1006.2 1005.9 4.4
24/08:30pm 14.7 11.1 12.9 89 1.0 WSW 24 32 13 17 1005.8 1005.5 4.4
24/08:00pm 15.7 11.7 14.1 90 0.9 WSW 28 35 15 19 1005.0 1004.7 4.4
24/07:30pm 16.5 13.4 14.5 88 1.2 WSW 24 33 13 18 1004.1 1003.9 4.4
24/07:00pm 18.1 14.2 15.5 85 1.5 WSW 30 35 16 19 1003.3 1003.1 4.4
24/06:30pm 18.7 15.1 16.3 86 1.4 WSW 30 39 16 21 1002.9 1002.6 4.4
24/06:11pm 18.4 15.4 16.7 90 1.0 WSW 28 50 15 27 1002.7 1002.4 4.4
24/06:00pm 18.8 17.4 17.1 90 1.0 SW 20 28 11 15 1002.5 1002.2 4.4
24/05:30pm 19.3 16.1 17.3 88 1.2 SW 30 35 16 19 1002.0 1001.7 4.4
24/05:05pm 20.1 18.3 16.9 82 2.0 WSW 22 43 12 23 1001.4 1001.1 4.4
24/05:00pm 20.9 20.2 16.3 75 2.8 WSW 15 22 8 12 1000.9 1000.6 4.4
24/04:30pm 21.6 20.7 16.8 74 3.0 WSW 17 22 9 12 1000.8 1000.5 4.4
24/04:00pm 22.3 21.6 17.4 74 3.1 WSW 17 22 9 12 1000.9 1000.6 4.4
24/03:30pm 22.2 22.0 16.7 71 3.4 SW 13 19 7 10 1001.4 1001.1 4.4
24/03:00pm 21.4 21.4 18.0 81 2.1 WSW 15 19 8 10 1002.0 1001.7 4.2
24/02:30pm 20.6 20.3 18.2 86 1.5 SW 17 26 9 14 1002.1 1001.8 4.2
24/02:00pm 21.8 21.2 18.4 81 2.2 NW 19 26 10 14 1002.3 1002.0 4.2
24/01:30pm 20.6 21.9 19.4 93 0.8 WNW 11 15 6 8 1002.8 1002.5 4.2
24/01:00pm 20.7 21.4 19.7 94 0.6 NNW 15 17 8 9 1002.9 1002.6 4.2
24/12:30pm 19.7 21.0 19.4 98 0.2 NW 11 15 6 8 1003.3 1003.1 4.2
24/12:00pm 18.6 18.4 18.6 100 0.0 WNW 17 24 9 13 1004.0 1003.8 4.2
24/11:30am 18.8 18.4 18.8 100 0.0 NW 19 28 10 15 1003.8 1003.6 4.2
24/11:00am 19.4 18.7 19.4 100 0.0 NW 22 30 12 16 1003.9 1003.7 2.8
24/10:30am 19.2 18.4 19.2 100 0.0 NW 22 33 12 18 1003.6 1003.4 2.8
24/10:05am 18.6 18.1 18.6 100 0.0 NNW 19 28 10 15 1003.5 1003.3 2.8
24/10:00am 18.5 17.7 18.5 100 0.0 NNW 20 28 11 15 1003.5 1003.3 2.8
24/09:42am 18.9 18.3 18.9 100 0.0 NNW 20 35 11 19 1003.4 1003.2 1.2
24/09:30am 19.3 19.1 19.3 100 0.0 NNW 19 26 10 14 1003.3 1003.1 0.0
24/09:00am 18.7 19.7 18.7 100 0.0 NNW 11 15 6 8 1003.5 1003.3 3.0
24/08:30am 19.1 20.3 19.1 100 0.0 NNW 11 22 6 12 1003.5 1003.3 3.0
24/08:00am 18.8 19.9 18.8 100 0.0 NW 11 15 6 8 1003.5 1003.3 3.0
24/07:30am 18.4 19.3 18.4 100 0.0 N 11 17 6 9 1003.3 1003.1 3.0
24/07:00am 18.2 19.0 18.2 100 0.0 NNW 11 19 6 10 1003.4 1003.2 2.8
24/06:30am 18.1 18.5 18.1 100 0.0 N 13 19 7 10 1003.3 1003.1 2.8
24/06:00am 18.2 19.0 18.2 100 0.0 N 11 17 6 9 1003.0 1002.7 2.8
24/05:30am 18.1 18.5 18.1 100 0.0 N 13 20 7 11 1002.8 1002.5 2.8
24/05:00am 18.2 18.2 18.0 99 0.1 N 15 20 8 11 1002.9 1002.6 2.8
24/04:30am 18.2 18.5 18.0 99 0.1 NNE 13 19 7 10 1003.1 1002.8 2.8
24/04:00am 17.7 18.3 17.7 100 0.0 NE 11 15 6 8 1003.6 1003.4 2.8
24/03:30am 17.6 19.0 17.4 99 0.1 E 6 9 3 5 1004.0 1003.8 2.6
24/03:00am 18.0 18.6 17.8 99 0.1 ENE 11 15 6 8 1004.3 1004.0 2.6
24/02:30am 17.9 18.9 17.7 99 0.1 N 9 13 5 7 1004.7 1004.4 2.6
24/02:00am 17.4 17.9 17.4 100 0.0 NNE 11 17 6 9 1004.6 1004.3 2.6
24/01:30am 17.3 17.7 17.3 100 0.0 NE 11 19 6 10 1005.2 1004.9 2.6
24/01:00am 17.2 17.2 17.2 100 0.0 ENE 13 17 7 9 1005.5 1005.2 2.6
24/12:30am 17.4 17.9 17.4 100 0.0 ENE 11 15 6 8 1006.0 1005.7 2.2
24/12:25am 17.4 19.2 17.4 100 0.0 NNE 4 11 2 6 1006.1 1005.8 1.8
24/12:05am 17.5 18.4 17.5 100 0.0 WNW 9 17 5 9 1006.3 1006.0 1.0
24/12:00am 17.5 17.6 17.5 100 0.0 WNW 13 17 7 9 1006.5 1006.2 0.6
 
Date/Time
EDT
Temp
°C
App
Temp
°C
Dew
Point
°C
Rel
Hum
%
Delta-T
°C
Wind Press
QNH
hPa
Press
MSL
hPa
Rain since
9am
mm
Dir  Spd
km/h
Gust
km/h
Spd
kts
Gust
kts
23/11:30pm 18.0 19.0 17.8 99 0.1 N 9 13 5 7 1005.8 1005.5 0.0
23/11:00pm 18.3 19.3 17.8 97 0.3 ENE 9 13 5 7 1005.4 1005.1 0.0
23/10:30pm 18.4 19.0 17.6 95 0.5 ENE 11 17 6 9 1005.5 1005.2 0.0
23/10:00pm 18.4 18.6 17.6 95 0.5 ENE 13 15 7 8 1005.5 1005.2 0.0
23/09:30pm 18.6 18.8 17.6 94 0.6 ENE 13 17 7 9 1006.5 1006.2 0.0
23/09:00pm 18.6 19.0 17.3 92 0.8 ENE 11 13 6 7 1007.1 1006.8 0.0
23/08:30pm 18.5 18.5 17.3 93 0.7 ENE 13 15 7 8 1006.8 1006.5 0.0
23/08:00pm 18.3 18.3 18.0 98 0.2 ENE 15 17 8 9 1006.2 1005.9 0.0
23/07:30pm 18.3 18.6 17.8 97 0.3 ESE 13 19 7 10 1006.1 1005.8 0.0
23/07:00pm 18.7 20.3 17.9 95 0.5 E 6 11 3 6 1006.0 1005.7 0.0
23/06:30pm 18.7 19.4 17.9 95 0.5 SSE 11 15 6 8 1006.5 1006.2 0.0
23/06:00pm 18.7 17.6 17.4 92 0.8 SW 19 26 10 14 1006.7 1006.4 0.0
23/05:30pm 19.3 16.0 17.1 87 1.3 WSW 30 37 16 20 1006.7 1006.4 0.0
23/05:21pm 19.6 16.7 17.0 85 1.6 W 28 41 15 22 1006.8 1006.5 0.0
23/05:00pm 20.8 20.3 15.8 73 3.0 WSW 13 28 7 15 1005.9 1005.6 0.0
23/04:30pm 21.5 20.4 15.3 68 3.7 S 15 17 8 9 1005.3 1005.0 0.0
23/04:00pm 22.4 20.6 14.5 61 4.7 WSW 17 26 9 14 1006.2 1005.9 0.0
23/03:30pm 23.2 21.1 16.3 65 4.2 WSW 22 32 12 17 1006.2 1005.9 0.0
23/03:00pm 26.3 25.5 15.0 49 6.9 NNW 13 24 7 13 1006.6 1006.3 0.0
23/02:30pm 27.0 24.1 14.1 45 7.8 N 22 32 12 17 1007.3 1007.1 0.0
23/02:00pm 27.8 24.4 13.7 42 8.5 N 24 37 13 20 1007.9 1007.7 0.0
23/01:30pm 27.1 27.2 16.4 52 6.7 N 11 15 6 8 1008.2 1008.0 0.0
23/01:00pm 25.8 24.9 14.9 51 6.6 N 13 15 7 8 1008.6 1008.4 0.0
23/12:30pm 25.6 23.4 14.4 50 6.7 NNW 19 28 10 15 1009.5 1009.2 0.0
23/12:00pm 26.1 23.0 14.6 49 7.0 N 24 33 13 18 1010.1 1009.8 0.0
23/11:30am 26.2 24.0 15.9 53 6.4 N 22 33 12 18 1010.4 1010.1 0.0
23/11:00am 25.0 22.2 14.2 51 6.5 N 22 33 12 18 1010.7 1010.4 0.0
23/10:30am 24.8 21.8 14.9 54 6.0 N 24 32 13 17 1010.6 1010.3 0.0
23/10:00am 22.7 22.2 15.8 65 4.2 NE 13 17 7 9 1010.9 1010.6 0.0
23/09:30am 21.6 20.8 15.0 66 3.9 NNE 13 19 7 10 1011.1 1010.8 0.0
23/09:00am 20.8 19.0 14.5 67 3.7 ENE 17 22 9 12 1011.2 1010.9 0.0
23/08:30am 19.8 17.5 14.2 70 3.3 ENE 19 24 10 13 1011.3 1011.0 0.0
23/08:00am 18.3 16.7 14.0 76 2.5 E 15 19 8 10 1011.2 1010.9 0.0
23/07:30am 16.7 15.1 12.7 77 2.2 E 13 15 7 8 1011.1 1010.8 0.0
23/07:00am 15.0 13.1 11.8 81 1.7 E 13 17 7 9 1011.2 1010.9 0.0
23/06:30am 14.2 11.6 10.8 80 1.8 E 15 19 8 10 1010.9 1010.6 0.0
23/06:00am 14.3 11.9 9.9 75 2.3 E 13 15 7 8 1010.8 1010.5 0.0
23/05:30am 14.2 11.6 9.4 73 2.5 E 13 15 7 8 1010.7 1010.4 0.0
23/05:00am 14.4 12.1 9.0 70 2.8 E 11 13 6 7 1010.5 1010.2 0.0
23/04:30am 14.8 11.2 8.3 65 3.3 E 17 20 9 11 1010.6 1010.3 0.0
23/04:00am 14.8 11.3 8.7 67 3.1 E 17 19 9 10 1010.7 1010.4 0.0
23/03:30am 15.0 12.7 9.1 68 3.1 E 11 13 6 7 1010.9 1010.6 0.0
23/03:00am 14.9 12.6 9.1 68 3.0 ESE 11 13 6 7 1010.8 1010.5 0.0
23/02:30am 14.7 11.5 8.4 66 3.2 ESE 15 17 8 9 1010.8 1010.5 0.0
23/02:00am 14.8 11.3 8.7 67 3.1 ESE 17 17 9 9 1010.6 1010.3 0.0
23/01:30am 14.9 12.2 8.8 67 3.1 E 13 15 7 8 1010.8 1010.5 0.0
23/01:00am 15.8 13.1 9.0 64 3.5 E 13 15 7 8 1011.1 1010.8 0.0

Other formats

Comma delimited format used in spreadsheet applications
http://www.bom.gov.au/fwo/IDN60801/IDN60801.94910.axf

JavaScript Object Notation format (JSON) in row-major order
http://www.bom.gov.au/fwo/IDN60801/IDN60801.94910.json

Data quality

Most of these data are generated automatically and are frequently updated. Quality checks on data are not normally performed. It is possible for incorrect values to appear. Refer to information at About Latest Weather Observations and please check the disclaimer before using these data.